createdAt,value
2022-12-08T00:01:58.180Z,3.21
2022-12-08T00:04:24.703Z,3.23
2022-12-08T00:06:51.788Z,3.24
2022-12-08T00:09:18.233Z,3.26
2022-12-08T00:11:45.840Z,3.25
2022-12-08T00:14:12.539Z,3.27
2022-12-08T00:16:38.964Z,3.26
2022-12-08T00:19:07.484Z,3.26
2022-12-08T00:21:33.820Z,3.26
2022-12-08T00:24:01.119Z,3.27
2022-12-08T00:26:27.595Z,3.26
2022-12-08T00:28:54.048Z,3.24
2022-12-08T00:31:20.492Z,3.24
2022-12-08T00:33:46.962Z,3.19
2022-12-08T00:36:13.341Z,3.20
2022-12-08T00:38:40.033Z,3.15
2022-12-08T00:41:07.456Z,3.09
2022-12-08T00:43:34.107Z,3.10
2022-12-08T00:46:00.820Z,3.10
2022-12-08T00:48:27.209Z,3.12
2022-12-08T00:50:53.659Z,3.14
2022-12-08T00:53:22.570Z,3.14
2022-12-08T00:55:49.237Z,3.15
2022-12-08T00:58:15.642Z,3.16
2022-12-08T01:00:42.411Z,3.15
2022-12-08T01:03:09.055Z,3.18
2022-12-08T01:05:35.474Z,3.18
2022-12-08T01:08:01.949Z,3.18
2022-12-08T01:10:28.487Z,3.15
2022-12-08T01:12:55.437Z,3.14
2022-12-08T01:15:21.828Z,3.13
2022-12-08T01:17:54.444Z,3.14
2022-12-08T01:20:21.170Z,3.14
2022-12-08T01:22:47.557Z,3.17
2022-12-08T01:25:14.278Z,3.19
2022-12-08T01:27:40.751Z,3.12
2022-12-08T01:30:07.829Z,3.00
2022-12-08T01:32:34.174Z,2.94
2022-12-08T01:35:00.715Z,2.90
2022-12-08T01:37:28.197Z,2.93
2022-12-08T01:39:55.474Z,2.94
2022-12-08T01:42:22.118Z,2.96
2022-12-08T01:44:48.507Z,2.96
2022-12-08T01:47:15.204Z,2.97
2022-12-08T01:49:41.765Z,2.97
2022-12-08T01:52:08.128Z,2.99
2022-12-08T01:54:37.004Z,3.01
2022-12-08T01:57:03.677Z,3.02
2022-12-08T01:59:30.144Z,3.01
2022-12-08T02:01:56.608Z,3.01
2022-12-08T02:04:23.374Z,3.00
2022-12-08T02:06:50.037Z,2.99
2022-12-08T02:09:16.727Z,2.99
2022-12-08T02:11:44.375Z,3.00
2022-12-08T02:14:10.751Z,2.99
2022-12-08T02:16:38.167Z,2.98
2022-12-08T02:19:30.356Z,2.96
2022-12-08T02:21:52.958Z,2.95
2022-12-08T02:24:19.293Z,2.90
2022-12-08T02:26:45.756Z,2.89
2022-12-08T02:29:12.094Z,2.88
2022-12-08T02:31:38.426Z,2.87
2022-12-08T02:34:05.843Z,2.87
2022-12-08T02:36:33.218Z,2.86
2022-12-08T02:38:59.750Z,2.86
2022-12-08T02:41:28.246Z,2.87
2022-12-08T02:43:54.738Z,2.88
2022-12-08T02:46:21.353Z,2.87
2022-12-08T02:48:48.057Z,2.87
2022-12-08T02:51:16.599Z,2.87
2022-12-08T02:53:43.135Z,2.84
2022-12-08T02:56:09.615Z,2.84
2022-12-08T02:58:35.997Z,2.86
2022-12-08T03:01:02.410Z,2.87
2022-12-08T03:03:30.132Z,2.85
2022-12-08T03:05:56.571Z,2.86
2022-12-08T03:08:23.116Z,2.87
2022-12-08T03:10:51.857Z,2.85
2022-12-08T03:13:18.782Z,2.85
2022-12-08T03:15:46.356Z,2.87
2022-12-08T03:18:12.803Z,2.89
2022-12-08T03:20:39.141Z,2.90
2022-12-08T03:23:05.693Z,2.92
2022-12-08T03:25:32.193Z,2.92
2022-12-08T03:27:59.611Z,2.90
2022-12-08T03:30:26.075Z,2.92
2022-12-08T03:32:52.811Z,2.90
2022-12-08T03:35:19.314Z,2.89
2022-12-08T03:37:45.913Z,2.86
2022-12-08T03:40:12.308Z,2.81
2022-12-08T03:42:38.715Z,2.76
2022-12-08T03:45:05.103Z,2.72
2022-12-08T03:47:33.984Z,2.72
2022-12-08T03:50:01.396Z,2.75
2022-12-08T03:52:28.202Z,2.80
2022-12-08T03:54:54.578Z,2.80
2022-12-08T03:57:20.957Z,2.80
2022-12-08T04:02:27.604Z,2.79
2022-12-08T04:04:53.986Z,2.81
2022-12-08T04:07:20.401Z,2.80
2022-12-08T04:09:46.817Z,2.82
2022-12-08T04:12:15.210Z,2.76
2022-12-08T04:14:41.543Z,2.64
2022-12-08T04:17:08.098Z,2.70
2022-12-08T04:19:34.501Z,2.61
2022-12-08T04:22:00.901Z,2.60
2022-12-08T04:24:27.300Z,2.62
2022-12-08T04:26:54.713Z,2.58
2022-12-08T04:29:21.213Z,2.47
2022-12-08T04:31:47.643Z,2.40
2022-12-08T04:34:14.095Z,2.44
2022-12-08T04:36:40.473Z,2.48
2022-12-08T04:39:06.869Z,2.52
2022-12-08T04:41:33.508Z,2.57
2022-12-08T04:43:59.900Z,2.62
2022-12-08T04:46:26.304Z,2.65
2022-12-08T04:48:53.721Z,2.64
2022-12-08T04:51:20.438Z,2.60
2022-12-08T04:53:47.208Z,2.60
2022-12-08T04:56:13.654Z,2.60
2022-12-08T04:58:41.127Z,2.61
2022-12-08T05:01:07.489Z,2.59
2022-12-08T05:03:34.139Z,2.57
2022-12-08T05:06:03.050Z,2.54
2022-12-08T05:08:29.690Z,2.51
2022-12-08T05:10:56.642Z,2.49
2022-12-08T05:13:23.025Z,2.51
2022-12-08T05:15:49.471Z,2.52
2022-12-08T05:18:17.392Z,2.54
2022-12-08T05:20:43.942Z,2.54
2022-12-08T05:23:10.649Z,2.57
2022-12-08T05:25:39.282Z,2.56
2022-12-08T05:28:32.838Z,2.58
2022-12-08T05:30:52.557Z,2.57
2022-12-08T05:33:18.937Z,2.57
2022-12-08T05:35:47.856Z,2.57
2022-12-08T05:38:14.225Z,2.57
2022-12-08T05:40:42.181Z,2.58
2022-12-08T05:43:08.619Z,2.57
2022-12-08T05:45:35.140Z,2.55
2022-12-08T05:48:02.726Z,2.53
2022-12-08T05:50:29.095Z,2.54
2022-12-08T05:52:56.232Z,2.55
2022-12-08T05:55:22.613Z,2.56
2022-12-08T05:57:48.995Z,2.56
2022-12-08T06:00:15.491Z,2.56
2022-12-08T06:02:43.238Z,2.58
2022-12-08T06:05:10.100Z,2.55
2022-12-08T06:07:37.912Z,2.53
2022-12-08T06:10:04.584Z,2.55
2022-12-08T06:12:31.361Z,2.51
2022-12-08T06:14:57.751Z,2.50
2022-12-08T06:17:24.387Z,2.50
2022-12-08T06:19:52.437Z,2.48
2022-12-08T06:22:18.881Z,2.48
2022-12-08T06:24:45.264Z,2.51
2022-12-08T06:27:11.636Z,2.52
2022-12-08T06:29:37.970Z,2.51
2022-12-08T06:32:04.424Z,2.50
2022-12-08T06:34:30.859Z,2.37
2022-12-08T06:36:57.351Z,2.37
2022-12-08T06:39:23.736Z,2.39
2022-12-08T06:41:51.251Z,2.42
2022-12-08T06:44:18.556Z,2.44
2022-12-08T06:46:45.174Z,2.45
2022-12-08T06:49:11.545Z,2.47
2022-12-08T06:51:37.920Z,2.46
2022-12-08T06:54:04.719Z,2.43
2022-12-08T06:56:31.259Z,2.38
2022-12-08T06:58:57.706Z,2.36
2022-12-08T07:01:24.175Z,2.34
2022-12-08T07:03:50.601Z,2.37
2022-12-08T07:06:17.037Z,2.39
2022-12-08T07:08:43.413Z,2.43
2022-12-08T07:11:10.021Z,2.47
2022-12-08T07:13:36.367Z,2.50
2022-12-08T07:16:02.704Z,2.50
2022-12-08T07:18:29.103Z,2.53
2022-12-08T07:20:56.426Z,2.52
2022-12-08T07:23:22.870Z,2.50
2022-12-08T07:25:49.254Z,2.53
2022-12-08T07:28:15.714Z,2.57
2022-12-08T07:30:42.571Z,2.60
2022-12-08T07:33:09.340Z,2.64
2022-12-08T07:35:35.718Z,2.66
2022-12-08T07:38:02.166Z,2.67
2022-12-08T07:40:28.530Z,2.71
2022-12-08T07:42:55.097Z,2.74
2022-12-08T07:45:29.872Z,2.75
2022-12-08T07:47:58.322Z,2.77
2022-12-08T07:50:25.888Z,2.78
2022-12-08T07:52:52.333Z,2.80
2022-12-08T07:55:19.001Z,2.84
2022-12-08T07:57:45.409Z,2.84
2022-12-08T08:00:11.796Z,2.84
2022-12-08T08:02:38.647Z,2.83
2022-12-08T08:05:05.336Z,2.83
2022-12-08T08:07:34.575Z,2.82
2022-12-08T08:10:01.066Z,2.84
2022-12-08T08:12:32.077Z,2.80
2022-12-08T08:14:59.267Z,2.81
2022-12-08T08:17:25.923Z,2.81
2022-12-08T08:19:52.538Z,2.88
2022-12-08T08:22:18.918Z,2.90
2022-12-08T08:24:45.660Z,2.91
2022-12-08T08:27:12.358Z,2.94
2022-12-08T08:29:39.741Z,2.97
2022-12-08T08:32:06.320Z,3.02
2022-12-08T08:34:32.817Z,3.04
2022-12-08T08:36:59.377Z,3.10
2022-12-08T08:39:25.808Z,3.14
2022-12-08T08:41:52.433Z,3.19
2022-12-08T08:44:19.365Z,3.24
2022-12-08T08:46:46.369Z,3.34
2022-12-08T08:49:12.898Z,3.36
2022-12-08T08:51:41.434Z,3.36
2022-12-08T08:54:07.905Z,3.30
2022-12-08T08:56:34.592Z,3.32
2022-12-08T08:59:01.067Z,3.36
2022-12-08T09:01:27.539Z,3.34
2022-12-08T09:03:53.959Z,3.17
2022-12-08T09:06:20.416Z,3.21
2022-12-08T09:08:47.553Z,3.24
2022-12-08T09:11:15.214Z,3.22
2022-12-08T09:13:41.552Z,3.35
2022-12-08T09:16:08.335Z,3.42
2022-12-08T09:18:34.795Z,3.50
2022-12-08T09:21:01.602Z,3.59
2022-12-08T09:23:35.074Z,3.65
2022-12-08T09:26:02.348Z,3.68
2022-12-08T09:28:28.765Z,3.81
2022-12-08T09:30:57.085Z,3.94
2022-12-08T09:33:23.707Z,3.95
2022-12-08T09:35:50.111Z,3.90
2022-12-08T09:38:16.491Z,3.76
2022-12-08T09:40:42.841Z,3.79
2022-12-08T09:43:09.395Z,3.81
2022-12-08T09:45:35.894Z,3.87
2022-12-08T09:48:02.894Z,3.80
2022-12-08T09:50:29.302Z,3.81
2022-12-08T09:52:55.742Z,3.77
2022-12-08T09:55:22.437Z,3.69
2022-12-08T09:57:53.059Z,3.65
2022-12-08T10:00:22.708Z,3.61
2022-12-08T10:02:49.337Z,3.63
2022-12-08T10:05:16.514Z,3.61
2022-12-08T10:07:43.203Z,3.70
2022-12-08T10:10:12.760Z,3.67
2022-12-08T10:12:39.512Z,3.80
2022-12-08T10:15:06.967Z,4.08
2022-12-08T10:17:33.340Z,4.31
2022-12-08T10:20:00.305Z,4.62
2022-12-08T10:22:26.687Z,4.78
2022-12-08T10:24:53.390Z,4.86
2022-12-08T10:27:22.637Z,5.09
2022-12-08T10:29:49.137Z,5.21
2022-12-08T10:32:16.631Z,5.38
2022-12-08T10:34:43.434Z,5.13
2022-12-08T10:37:10.304Z,4.99
2022-12-08T10:39:36.791Z,5.25
2022-12-08T10:42:03.345Z,5.16
2022-12-08T10:44:29.791Z,5.40
2022-12-08T10:46:56.592Z,5.56
2022-12-08T10:49:23.247Z,5.50
2022-12-08T10:51:49.942Z,5.38
2022-12-08T10:54:20.559Z,5.38
2022-12-08T10:56:48.465Z,5.43
2022-12-08T10:59:15.327Z,5.52
2022-12-08T11:01:41.953Z,5.64
2022-12-08T11:04:08.462Z,5.68
2022-12-08T11:06:37.203Z,5.61
2022-12-08T11:09:04.067Z,5.66
2022-12-08T11:11:30.569Z,5.55
2022-12-08T11:13:56.953Z,5.59
2022-12-08T11:16:23.561Z,5.43
2022-12-08T11:18:50.362Z,5.03
2022-12-08T11:21:16.841Z,4.85
2022-12-08T11:23:43.483Z,4.96
2022-12-08T11:26:09.909Z,5.11
2022-12-08T11:28:36.354Z,5.24
2022-12-08T11:31:03.367Z,5.30
2022-12-08T11:33:30.196Z,5.41
2022-12-08T11:35:59.153Z,5.44
2022-12-08T11:38:25.594Z,5.44
2022-12-08T11:40:52.120Z,5.46
2022-12-08T11:43:18.863Z,5.53
2022-12-08T11:45:45.355Z,5.63
2022-12-08T11:48:12.197Z,5.64
2022-12-08T11:50:39.406Z,5.61
2022-12-08T11:53:05.847Z,5.57
2022-12-08T11:55:37.331Z,5.61
2022-12-08T11:58:05.906Z,5.65
2022-12-08T12:00:32.490Z,5.57
2022-12-08T12:02:58.921Z,5.56
2022-12-08T12:05:39.822Z,5.64
2022-12-08T12:08:11.734Z,5.55
2022-12-08T12:10:38.353Z,5.49
2022-12-08T12:13:04.696Z,5.51
2022-12-08T12:15:32.255Z,5.50
2022-12-08T12:17:58.703Z,5.57
2022-12-08T12:20:25.339Z,5.63
2022-12-08T12:22:51.773Z,5.60
2022-12-08T12:25:18.240Z,5.56
2022-12-08T12:27:44.941Z,5.57
2022-12-08T12:30:11.521Z,5.60
2022-12-08T12:32:37.902Z,5.63
2022-12-08T12:35:04.896Z,5.59
2022-12-08T12:37:33.483Z,5.58
2022-12-08T12:40:02.144Z,5.60
2022-12-08T12:42:28.611Z,5.35
2022-12-08T12:44:56.086Z,5.25
2022-12-08T12:47:22.479Z,5.01
2022-12-08T12:49:49.166Z,5.18
2022-12-08T12:52:15.543Z,5.23
2022-12-08T12:54:41.955Z,5.30
2022-12-08T12:57:08.738Z,5.35
2022-12-08T12:59:35.124Z,5.43
2022-12-08T13:02:01.554Z,5.49
2022-12-08T13:04:28.075Z,5.38
2022-12-08T13:06:54.480Z,5.37
2022-12-08T13:09:23.424Z,5.44
2022-12-08T13:11:49.797Z,5.48
2022-12-08T13:14:23.485Z,5.60
2022-12-08T13:16:50.728Z,5.54
2022-12-08T13:19:17.117Z,5.64
2022-12-08T13:21:43.456Z,5.73
2022-12-08T13:24:10.294Z,5.77
2022-12-08T13:26:36.653Z,5.83
2022-12-08T13:29:03.130Z,5.89
2022-12-08T13:31:30.449Z,5.99
2022-12-08T13:33:57.018Z,6.00
2022-12-08T13:36:23.466Z,6.01
2022-12-08T13:38:49.838Z,6.06
2022-12-08T13:41:16.610Z,6.05
2022-12-08T13:43:55.499Z,6.10
2022-12-08T13:55:49.520Z,5.82
2022-12-08T13:57:35.103Z,5.83
2022-12-08T14:00:01.745Z,5.92
2022-12-08T14:02:31.335Z,6.05
2022-12-08T14:07:44.206Z,6.01
2022-12-08T14:10:10.838Z,6.04
2022-12-08T14:12:38.228Z,6.04
2022-12-08T14:15:05.004Z,5.86
2022-12-08T14:17:31.580Z,5.82
2022-12-08T14:19:58.165Z,5.82
2022-12-08T14:22:24.849Z,5.79
2022-12-08T14:24:51.525Z,5.89
2022-12-08T14:27:18.308Z,5.91
2022-12-08T14:29:44.815Z,5.87
2022-12-08T14:32:11.502Z,5.91
2022-12-08T14:34:38.022Z,5.92
2022-12-08T14:37:04.825Z,5.83
2022-12-08T14:39:32.225Z,5.83
2022-12-08T14:41:58.592Z,5.86
2022-12-08T14:44:28.098Z,5.72
2022-12-08T14:46:54.762Z,5.58
2022-12-08T14:49:21.208Z,5.47
2022-12-08T14:51:47.738Z,5.32
2022-12-08T14:54:14.227Z,5.14
2022-12-08T14:56:43.142Z,5.06
2022-12-08T14:59:09.610Z,4.93
2022-12-08T15:01:36.408Z,4.85
2022-12-08T15:04:02.888Z,4.76
2022-12-08T15:06:29.317Z,4.69
2022-12-08T15:08:55.724Z,4.65
2022-12-08T15:11:22.181Z,4.59
2022-12-08T15:13:48.802Z,4.53
2022-12-08T15:16:15.228Z,4.47
2022-12-08T15:18:41.603Z,4.41
2022-12-08T15:21:07.983Z,4.34
2022-12-08T15:23:34.890Z,4.26
2022-12-08T15:26:01.694Z,4.20
2022-12-08T15:28:29.960Z,4.13
2022-12-08T15:30:57.118Z,4.06
2022-12-08T15:33:23.592Z,3.99
2022-12-08T15:35:50.194Z,3.92
2022-12-08T15:38:16.734Z,3.85
2022-12-08T15:40:43.105Z,3.78
2022-12-08T15:43:09.529Z,3.73
2022-12-08T15:45:36.063Z,3.66
2022-12-08T15:48:02.482Z,3.61
2022-12-08T15:50:28.970Z,3.57
2022-12-08T15:52:55.356Z,3.49
2022-12-08T15:55:21.857Z,3.45
2022-12-08T16:00:52.839Z,3.31
2022-12-08T16:03:59.409Z,3.26
2022-12-08T16:09:06.266Z,3.07
2022-12-08T16:12:05.383Z,3.00
2022-12-08T16:15:30.328Z,2.94
2022-12-08T16:17:11.436Z,2.83
2022-12-08T16:19:37.858Z,2.78
2022-12-08T16:22:51.337Z,2.72
2022-12-08T16:24:50.658Z,2.64
2022-12-08T16:30:03.512Z,2.53
2022-12-08T16:32:29.939Z,2.50
2022-12-08T16:34:56.621Z,2.49
2022-12-08T16:37:23.265Z,2.49
2022-12-08T16:39:49.691Z,2.43
2022-12-08T16:42:16.129Z,2.36
2022-12-08T16:44:42.893Z,2.28
2022-12-08T16:47:09.237Z,2.28
2022-12-08T16:49:35.633Z,2.28
2022-12-08T16:52:02.121Z,2.29
2022-12-08T16:54:28.490Z,2.25
2022-12-08T16:56:55.043Z,2.24
2022-12-08T16:59:23.497Z,2.20
2022-12-08T17:01:49.837Z,2.16
2022-12-08T17:04:31.319Z,2.11
2022-12-08T17:06:57.990Z,2.06
2022-12-08T17:09:24.383Z,2.08
2022-12-08T17:11:50.937Z,2.08
2022-12-08T17:14:17.259Z,2.07
2022-12-08T17:16:43.694Z,2.01
2022-12-08T17:19:10.082Z,1.96
2022-12-08T17:21:36.414Z,1.92
2022-12-08T17:24:02.817Z,1.90
2022-12-08T17:26:29.347Z,1.86
2022-12-08T17:29:02.743Z,1.83
2022-12-08T17:31:30.524Z,1.81
2022-12-08T17:33:58.367Z,1.83
2022-12-08T17:36:24.752Z,1.82
2022-12-08T17:38:51.303Z,1.81
2022-12-08T17:41:17.704Z,1.82
2022-12-08T17:43:46.435Z,1.81
2022-12-08T17:46:13.223Z,1.81
2022-12-08T17:48:40.469Z,1.80
2022-12-08T17:51:06.814Z,1.77
2022-12-08T17:53:37.369Z,1.72
2022-12-08T17:56:04.073Z,1.68
2022-12-08T17:58:30.440Z,1.67
2022-12-08T18:00:59.127Z,1.63
2022-12-08T18:03:25.488Z,1.63
2022-12-08T18:05:51.946Z,1.56
2022-12-08T18:08:18.368Z,1.52
2022-12-08T18:10:44.858Z,1.54
2022-12-08T18:13:11.432Z,1.52
2022-12-08T18:15:39.438Z,1.45
2022-12-08T18:18:05.897Z,1.43
2022-12-08T18:20:32.327Z,1.43
2022-12-08T18:22:58.695Z,1.45
2022-12-08T18:25:25.713Z,1.50
2022-12-08T18:27:52.086Z,1.52
2022-12-08T18:30:18.657Z,1.53
2022-12-08T18:32:45.276Z,1.54
2022-12-08T18:35:11.772Z,1.57
2022-12-08T18:37:39.381Z,1.59
2022-12-08T18:40:06.103Z,1.63
2022-12-08T18:42:32.753Z,1.68
2022-12-08T18:44:59.323Z,1.74
2022-12-08T18:47:25.928Z,1.78
2022-12-08T18:49:52.367Z,1.79
2022-12-08T18:52:25.953Z,1.78
2022-12-08T18:55:06.227Z,1.77
2022-12-08T18:57:33.459Z,1.84
2022-12-08T19:00:00.436Z,1.85
2022-12-08T19:02:26.872Z,1.84
2022-12-08T19:04:55.856Z,1.87
2022-12-08T19:07:22.236Z,1.90
2022-12-08T19:09:49.566Z,1.94
2022-12-08T19:12:16.075Z,1.98
2022-12-08T19:14:42.764Z,2.01
2022-12-08T19:17:09.574Z,2.02
2022-12-08T19:19:36.130Z,2.05
2022-12-08T19:22:02.526Z,2.09
2022-12-08T19:24:29.129Z,2.10
2022-12-08T19:26:55.602Z,2.12
2022-12-08T19:29:21.986Z,2.12
2022-12-08T19:31:48.596Z,2.12
2022-12-08T19:34:15.360Z,2.14
2022-12-08T19:36:41.760Z,2.18
2022-12-08T19:39:08.451Z,2.19
2022-12-08T19:41:35.024Z,2.19
2022-12-08T19:44:02.505Z,2.18
2022-12-08T19:46:29.041Z,2.18
2022-12-08T19:48:55.554Z,2.20
2022-12-08T19:51:21.918Z,2.20
2022-12-08T19:53:48.303Z,2.18
2022-12-08T19:56:14.745Z,2.20
2022-12-08T19:58:41.095Z,2.20
2022-12-08T20:01:07.712Z,2.20
2022-12-08T20:03:34.628Z,2.20
2022-12-08T20:06:01.382Z,2.20
2022-12-08T20:08:27.936Z,2.19
2022-12-08T20:10:54.540Z,2.19
2022-12-08T20:13:21.048Z,2.20
2022-12-08T20:15:47.709Z,2.18
2022-12-08T20:18:14.167Z,2.20
2022-12-08T20:20:40.639Z,2.16
2022-12-08T20:23:08.594Z,2.14
2022-12-08T20:25:34.997Z,2.19
2022-12-08T20:28:01.477Z,2.20
2022-12-08T20:30:27.877Z,2.20
2022-12-08T20:32:54.236Z,2.17
2022-12-08T20:35:20.863Z,2.20
2022-12-08T20:37:47.270Z,2.19
2022-12-08T20:40:13.951Z,2.17
2022-12-08T20:42:40.334Z,2.14
2022-12-08T20:45:07.976Z,2.14
2022-12-08T20:47:36.741Z,2.11
2022-12-08T20:50:03.626Z,2.13
2022-12-08T20:52:30.435Z,2.12
2022-12-08T20:54:56.818Z,2.11
2022-12-08T20:57:23.592Z,2.13
2022-12-08T20:59:53.134Z,2.12
2022-12-08T21:02:21.130Z,2.12
2022-12-08T21:04:47.685Z,2.14
2022-12-08T21:07:15.295Z,2.18
2022-12-08T21:12:23.704Z,2.24
2022-12-08T21:14:50.251Z,2.23
2022-12-08T21:17:16.934Z,2.15
2022-12-08T21:19:44.825Z,2.06
2022-12-08T21:22:11.397Z,2.08
2022-12-08T21:24:39.861Z,2.11
2022-12-08T21:27:06.394Z,2.17
2022-12-08T21:29:33.353Z,2.20
2022-12-08T21:32:00.090Z,2.23
2022-12-08T21:34:27.853Z,2.28
2022-12-08T21:36:54.431Z,2.29
2022-12-08T21:39:21.072Z,2.32
2022-12-08T21:41:47.473Z,2.34
2022-12-08T21:44:14.081Z,2.35
2022-12-08T21:46:41.066Z,2.39
2022-12-08T21:49:07.532Z,2.36
2022-12-08T21:51:34.497Z,2.30
2022-12-08T21:54:01.122Z,2.29
2022-12-08T21:56:27.861Z,2.27
2022-12-08T21:58:54.374Z,2.20
2022-12-08T22:01:21.019Z,1.98
2022-12-08T22:03:48.849Z,1.96
2022-12-08T22:06:15.505Z,2.06
2022-12-08T22:08:42.249Z,1.97
2022-12-08T22:11:09.083Z,2.01
2022-12-08T22:13:35.686Z,2.09
2022-12-08T22:16:02.262Z,2.12
2022-12-08T22:18:30.348Z,2.10
2022-12-08T22:20:56.869Z,2.12
2022-12-08T22:23:23.641Z,2.14
2022-12-08T22:25:50.281Z,2.21
2022-12-08T22:28:16.691Z,2.10
2022-12-08T22:30:43.183Z,2.04
2022-12-08T22:33:09.959Z,2.08
2022-12-08T22:35:36.701Z,2.13
2022-12-08T22:38:03.344Z,2.22
2022-12-08T22:40:29.758Z,2.30
2022-12-08T22:42:56.238Z,2.31
2022-12-08T22:45:22.759Z,2.38
2022-12-08T22:47:49.670Z,2.43
2022-12-08T22:50:16.115Z,2.48
2022-12-08T22:52:42.660Z,2.38
2022-12-08T22:55:09.373Z,2.21
2022-12-08T22:57:35.989Z,2.19
2022-12-08T23:00:02.743Z,2.22
2022-12-08T23:02:29.326Z,2.28
2022-12-08T23:04:55.978Z,2.34
2022-12-08T23:07:23.363Z,2.42
2022-12-08T23:09:49.809Z,2.46
2022-12-08T23:12:16.213Z,2.51
2022-12-08T23:14:42.790Z,2.54
2022-12-08T23:17:09.313Z,2.56
2022-12-08T23:19:35.858Z,2.57
2022-12-08T23:22:02.450Z,2.60
2022-12-08T23:24:28.806Z,2.61
2022-12-08T23:26:55.819Z,2.62
2022-12-08T23:29:24.747Z,2.59
2022-12-08T23:31:51.228Z,2.59
2022-12-08T23:34:17.938Z,2.58
2022-12-08T23:36:44.444Z,2.57
2022-12-08T23:39:10.893Z,2.57
2022-12-08T23:41:37.467Z,2.57
2022-12-08T23:44:03.911Z,2.56
2022-12-08T23:46:30.925Z,2.56
2022-12-08T23:48:57.584Z,2.58
2022-12-08T23:51:24.114Z,2.58
2022-12-08T23:53:50.467Z,2.59
2022-12-08T23:56:16.876Z,2.53
2022-12-08T23:58:43.647Z,2.47
